sensor_id;sensor_type;location;lat;lon;timestamp;pressure;altitude;pressure_sealevel;temperature;humidity
54038;BME280;39954;48.844;9.726;2023-03-18T00:00:27;95630.59;;;6.91;100.00
54038;BME280;39954;48.844;9.726;2023-03-18T00:01:33;95637.69;;;6.88;100.00
54038;BME280;39954;48.844;9.726;2023-03-18T00:02:35;95646.56;;;6.82;100.00
54038;BME280;39954;48.844;9.726;2023-03-18T00:03:41;95643.50;;;6.74;100.00
54038;BME280;39954;48.844;9.726;2023-03-18T00:04:43;95643.66;;;6.71;100.00
54038;BME280;39954;48.844;9.726;2023-03-18T00:05:48;95643.13;;;6.64;100.00
54038;BME280;39954;48.844;9.726;2023-03-18T00:06:50;95641.59;;;6.60;100.00
54038;BME280;39954;48.844;9.726;2023-03-18T00:07:54;95647.97;;;6.53;100.00
54038;BME280;39954;48.844;9.726;2023-03-18T00:08:57;95643.13;;;6.47;100.00
54038;BME280;39954;48.844;9.726;2023-03-18T00:10:02;95650.28;;;6.40;100.00
54038;BME280;39954;48.844;9.726;2023-03-18T00:11:04;95654.09;;;6.33;100.00
54038;BME280;39954;48.844;9.726;2023-03-18T00:12:10;95648.44;;;6.25;100.00
54038;BME280;39954;48.844;9.726;2023-03-18T00:13:12;95640.97;;;6.19;100.00
54038;BME280;39954;48.844;9.726;2023-03-18T00:14:19;95642.19;;;6.12;100.00
54038;BME280;39954;48.844;9.726;2023-03-18T00:15:24;95643.22;;;6.08;100.00
54038;BME280;39954;48.844;9.726;2023-03-18T00:16:29;95651.25;;;6.01;100.00
54038;BME280;39954;48.844;9.726;2023-03-18T00:17:31;95653.19;;;5.96;100.00
54038;BME280;39954;48.844;9.726;2023-03-18T00:18:38;95656.69;;;5.95;100.00
54038;BME280;39954;48.844;9.726;2023-03-18T00:19:43;95649.19;;;5.89;100.00
54038;BME280;39954;48.844;9.726;2023-03-18T00:20:45;95647.78;;;5.82;100.00
54038;BME280;39954;48.844;9.726;2023-03-18T00:21:50;95651.41;;;5.78;100.00
54038;BME280;39954;48.844;9.726;2023-03-18T00:22:52;95654.97;;;5.75;100.00
54038;BME280;39954;48.844;9.726;2023-03-18T00:23:58;95660.19;;;5.74;100.00
54038;BME280;39954;48.844;9.726;2023-03-18T00:25:02;95660.31;;;5.71;100.00
54038;BME280;39954;48.844;9.726;2023-03-18T00:26:07;95657.06;;;5.67;100.00
54038;BME280;39954;48.844;9.726;2023-03-18T00:27:09;95662.41;;;5.63;100.00
54038;BME280;39954;48.844;9.726;2023-03-18T00:28:14;95655.72;;;5.58;100.00
54038;BME280;39954;48.844;9.726;2023-03-18T00:29:19;95661.91;;;5.54;100.00
54038;BME280;39954;48.844;9.726;2023-03-18T00:30:26;95666.44;;;5.49;100.00
54038;BME280;39954;48.844;9.726;2023-03-18T00:31:29;95661.41;;;5.46;100.00
54038;BME280;39954;48.844;9.726;2023-03-18T00:32:34;95662.31;;;5.45;100.00
54038;BME280;39954;48.844;9.726;2023-03-18T00:33:37;95660.66;;;5.44;100.00
54038;BME280;39954;48.844;9.726;2023-03-18T00:34:44;95664.09;;;5.43;100.00
54038;BME280;39954;48.844;9.726;2023-03-18T00:35:47;95665.84;;;5.43;100.00
54038;BME280;39954;48.844;9.726;2023-03-18T00:36:51;95667.59;;;5.42;100.00
54038;BME280;39954;48.844;9.726;2023-03-18T00:37:58;95666.75;;;5.42;100.00
54038;BME280;39954;48.844;9.726;2023-03-18T00:39:04;95664.25;;;5.40;100.00
54038;BME280;39954;48.844;9.726;2023-03-18T00:40:10;95662.56;;;5.39;100.00
54038;BME280;39954;48.844;9.726;2023-03-18T00:41:21;95671.09;;;5.41;100.00
54038;BME280;39954;48.844;9.726;2023-03-18T00:42:23;95672.06;;;5.38;100.00
54038;BME280;39954;48.844;9.726;2023-03-18T00:43:29;95666.94;;;5.37;100.00
54038;BME280;39954;48.844;9.726;2023-03-18T00:44:34;95672.09;;;5.37;100.00
54038;BME280;39954;48.844;9.726;2023-03-18T00:45:43;95673.84;;;5.36;100.00
54038;BME280;39954;48.844;9.726;2023-03-18T00:46:45;95675.47;;;5.39;100.00
54038;BME280;39954;48.844;9.726;2023-03-18T00:47:50;95675.31;;;5.42;100.00
54038;BME280;39954;48.844;9.726;2023-03-18T00:48:54;95677.00;;;5.43;100.00
54038;BME280;39954;48.844;9.726;2023-03-18T00:50:00;95675.31;;;5.42;100.00
54038;BME280;39954;48.844;9.726;2023-03-18T00:51:04;95673.66;;;5.41;100.00
54038;BME280;39954;48.844;9.726;2023-03-18T00:52:09;95670.31;;;5.39;100.00
54038;BME280;39954;48.844;9.726;2023-03-18T00:53:11;95667.78;;;5.37;100.00
54038;BME280;39954;48.844;9.726;2023-03-18T00:54:16;95669.59;;;5.35;100.00
54038;BME280;39954;48.844;9.726;2023-03-18T00:55:21;95663.81;;;5.30;100.00
54038;BME280;39954;48.844;9.726;2023-03-18T00:56:28;95671.59;;;5.29;100.00
54038;BME280;39954;48.844;9.726;2023-03-18T00:57:31;95662.06;;;5.31;100.00
54038;BME280;39954;48.844;9.726;2023-03-18T00:58:37;95666.31;;;5.32;100.00
54038;BME280;39954;48.844;9.726;2023-03-18T00:59:39;95671.34;;;5.35;100.00
54038;BME280;39954;48.844;9.726;2023-03-18T01:00:47;95678.22;;;5.34;100.00
54038;BME280;39954;48.844;9.726;2023-03-18T01:01:49;95668.88;;;5.32;100.00
54038;BME280;39954;48.844;9.726;2023-03-18T01:02:54;95669.00;;;5.29;100.00
54038;BME280;39954;48.844;9.726;2023-03-18T01:03:57;95677.66;;;5.28;100.00
54038;BME280;39954;48.844;9.726;2023-03-18T01:05:02;95670.84;;;5.27;100.00
54038;BME280;39954;48.844;9.726;2023-03-18T01:06:05;95667.53;;;5.23;100.00
54038;BME280;39954;48.844;9.726;2023-03-18T01:07:10;95671.03;;;5.22;100.00
54038;BME280;39954;48.844;9.726;2023-03-18T01:08:13;95672.00;;;5.20;100.00
54038;BME280;39954;48.844;9.726;2023-03-18T01:09:18;95676.22;;;5.21;100.00
54038;BME280;39954;48.844;9.726;2023-03-18T01:10:20;95667.75;;;5.19;100.00
54038;BME280;39954;48.844;9.726;2023-03-18T01:11:25;95679.84;;;5.16;100.00
54038;BME280;39954;48.844;9.726;2023-03-18T01:12:27;95679.03;;;5.16;100.00
54038;BME280;39954;48.844;9.726;2023-03-18T01:13:32;95679.84;;;5.16;100.00
54038;BME280;39954;48.844;9.726;2023-03-18T01:14:35;95670.38;;;5.17;100.00
54038;BME280;39954;48.844;9.726;2023-03-18T01:15:40;95670.38;;;5.17;100.00
54038;BME280;39954;48.844;9.726;2023-03-18T01:16:45;95668.50;;;5.21;100.00
54038;BME280;39954;48.844;9.726;2023-03-18T01:17:51;95666.78;;;5.21;100.00
54038;BME280;39954;48.844;9.726;2023-03-18T01:18:55;95674.31;;;5.26;100.00
54038;BME280;39954;48.844;9.726;2023-03-18T01:20:00;95665.75;;;5.25;100.00
54038;BME280;39954;48.844;9.726;2023-03-18T01:21:04;95669.94;;;5.28;100.00
54038;BME280;39954;48.844;9.726;2023-03-18T01:22:09;95674.13;;;5.30;100.00
54038;BME280;39954;48.844;9.726;2023-03-18T01:23:11;95672.16;;;5.56;100.00
54038;BME280;39954;48.844;9.726;2023-03-18T01:24:16;95661.09;;;5.73;100.00
54038;BME280;39954;48.844;9.726;2023-03-18T01:25:19;95658.44;;;5.95;100.00
54038;BME280;39954;48.844;9.726;2023-03-18T01:26:24;95665.44;;;5.91;100.00
54038;BME280;39954;48.844;9.726;2023-03-18T01:27:27;95660.44;;;5.88;100.00
54038;BME280;39954;48.844;9.726;2023-03-18T01:28:31;95663.13;;;5.85;100.00
54038;BME280;39954;48.844;9.726;2023-03-18T01:29:34;95660.53;;;5.85;100.00
54038;BME280;39954;48.844;9.726;2023-03-18T01:30:39;95662.75;;;5.94;100.00
54038;BME280;39954;48.844;9.726;2023-03-18T01:31:41;95663.66;;;5.93;100.00
54038;BME280;39954;48.844;9.726;2023-03-18T01:32:50;95665.34;;;5.93;100.00
54038;BME280;39954;48.844;9.726;2023-03-18T01:33:52;95661.78;;;5.97;100.00
54038;BME280;39954;48.844;9.726;2023-03-18T01:34:57;95668.19;;;6.07;100.00
54038;BME280;39954;48.844;9.726;2023-03-18T01:36:00;95670.91;;;6.04;100.00
54038;BME280;39954;48.844;9.726;2023-03-18T01:37:06;95665.09;;;5.99;100.00
54038;BME280;39954;48.844;9.726;2023-03-18T01:38:08;95663.50;;;5.96;100.00
54038;BME280;39954;48.844;9.726;2023-03-18T01:39:13;95665.34;;;5.93;100.00
54038;BME280;39954;48.844;9.726;2023-03-18T01:40:16;95662.88;;;5.91;100.00
54038;BME280;39954;48.844;9.726;2023-03-18T01:41:21;95664.66;;;5.89;100.00
54038;BME280;39954;48.844;9.726;2023-03-18T01:42:23;95669.81;;;5.89;100.00
54038;BME280;39954;48.844;9.726;2023-03-18T01:43:31;95666.47;;;5.87;100.00
54038;BME280;39954;48.844;9.726;2023-03-18T01:44:34;95665.78;;;5.83;100.00
54038;BME280;39954;48.844;9.726;2023-03-18T01:45:41;95673.72;;;5.79;100.00
54038;BME280;39954;48.844;9.726;2023-03-18T01:46:45;95670.34;;;5.77;100.00
54038;BME280;39954;48.844;9.726;2023-03-18T01:47:53;95670.34;;;5.77;100.00
54038;BME280;39954;48.844;9.726;2023-03-18T01:48:56;95661.88;;;5.75;100.00
54038;BME280;39954;48.844;9.726;2023-03-18T01:50:03;95668.69;;;5.76;100.00
54038;BME280;39954;48.844;9.726;2023-03-18T01:51:09;95667.16;;;5.72;100.00
54038;BME280;39954;48.844;9.726;2023-03-18T01:52:15;95668.88;;;5.71;100.00
54038;BME280;39954;48.844;9.726;2023-03-18T01:53:21;95666.41;;;5.70;100.00
54038;BME280;39954;48.844;9.726;2023-03-18T01:54:26;95669.94;;;5.67;100.00
54038;BME280;39954;48.844;9.726;2023-03-18T01:55:32;95678.72;;;5.63;100.00
54038;BME280;39954;48.844;9.726;2023-03-18T01:56:36;95673.75;;;5.58;100.00
54038;BME280;39954;48.844;9.726;2023-03-18T01:57:43;95678.28;;;5.53;100.00
54038;BME280;39954;48.844;9.726;2023-03-18T01:58:48;95680.06;;;5.51;100.00
54038;BME280;39954;48.844;9.726;2023-03-18T01:59:54;95669.06;;;5.48;100.00
54038;BME280;39954;48.844;9.726;2023-03-18T02:01:03;95673.22;;;5.52;100.00
54038;BME280;39954;48.844;9.726;2023-03-18T02:02:12;95675.84;;;5.50;100.00
54038;BME280;39954;48.844;9.726;2023-03-18T02:03:18;95673.25;;;5.50;100.00
54038;BME280;39954;48.844;9.726;2023-03-18T02:04:33;95668.16;;;5.49;100.00
54038;BME280;39954;48.844;9.726;2023-03-18T02:05:39;95669.06;;;5.48;100.00
54038;BME280;39954;48.844;9.726;2023-03-18T02:06:45;95666.56;;;5.46;100.00
54038;BME280;39954;48.844;9.726;2023-03-18T02:07:47;95666.56;;;5.46;100.00
54038;BME280;39954;48.844;9.726;2023-03-18T02:08:53;95658.75;;;5.48;100.00
54038;BME280;39954;48.844;9.726;2023-03-18T02:09:56;95669.16;;;5.46;100.00
54038;BME280;39954;48.844;9.726;2023-03-18T02:11:02;95671.47;;;5.52;100.00
54038;BME280;39954;48.844;9.726;2023-03-18T02:12:05;95663.72;;;5.52;100.00
54038;BME280;39954;48.844;9.726;2023-03-18T02:13:12;95664.47;;;5.54;100.00
54038;BME280;39954;48.844;9.726;2023-03-18T02:14:17;95664.22;;;5.60;100.00
54038;BME280;39954;48.844;9.726;2023-03-18T02:15:25;95661.50;;;5.64;100.00
54038;BME280;39954;48.844;9.726;2023-03-18T02:16:32;95662.91;;;5.71;100.00
54038;BME280;39954;48.844;9.726;2023-03-18T02:17:40;95656.84;;;5.72;100.00
54038;BME280;39954;48.844;9.726;2023-03-18T02:18:48;95660.97;;;5.76;100.00
54038;BME280;39954;48.844;9.726;2023-03-18T02:20:01;95664.44;;;5.75;100.00
54038;BME280;39954;48.844;9.726;2023-03-18T02:21:18;95663.72;;;5.71;100.00
54038;BME280;39954;48.844;9.726;2023-03-18T02:22:28;95662.16;;;5.69;100.00
54038;BME280;39954;48.844;9.726;2023-03-18T02:23:40;95655.94;;;5.73;100.00
54038;BME280;39954;48.844;9.726;2023-03-18T02:24:51;95659.28;;;5.75;100.00
54038;BME280;39954;48.844;9.726;2023-03-18T02:25:59;95657.56;;;5.75;100.00
54038;BME280;39954;48.844;9.726;2023-03-18T02:27:16;95649.03;;;5.73;100.00
54038;BME280;39954;48.844;9.726;2023-03-18T02:28:21;95658.38;;;5.76;100.00
54038;BME280;39954;48.844;9.726;2023-03-18T02:29:30;95663.53;;;5.76;100.00
54038;BME280;39954;48.844;9.726;2023-03-18T02:30:36;95655.94;;;5.73;100.00
54038;BME280;39954;48.844;9.726;2023-03-18T02:31:41;95656.06;;;5.70;100.00
54038;BME280;39954;48.844;9.726;2023-03-18T02:32:46;95653.50;;;5.70;100.00
54038;BME280;39954;48.844;9.726;2023-03-18T02:33:52;95651.91;;;5.67;100.00
54038;BME280;39954;48.844;9.726;2023-03-18T02:34:55;95657.97;;;5.66;100.00
54038;BME280;39954;48.844;9.726;2023-03-18T02:36:02;95657.09;;;5.66;100.00
54038;BME280;39954;48.844;9.726;2023-03-18T02:37:05;95660.47;;;5.68;100.00
54038;BME280;39954;48.844;9.726;2023-03-18T02:38:10;95661.44;;;5.65;100.00
54038;BME280;39954;48.844;9.726;2023-03-18T02:39:13;95670.91;;;5.65;100.00
54038;BME280;39954;48.844;9.726;2023-03-18T02:40:23;95674.25;;;5.67;100.00
54038;BME280;39954;48.844;9.726;2023-03-18T02:41:28;95669.25;;;5.64;100.00
54038;BME280;39954;48.844;9.726;2023-03-18T02:42:36;95667.69;;;5.59;100.00
54038;BME280;39954;48.844;9.726;2023-03-18T02:43:38;95679.84;;;5.57;100.00
54038;BME280;39954;48.844;9.726;2023-03-18T02:44:44;95678.00;;;5.59;100.00
54038;BME280;39954;48.844;9.726;2023-03-18T02:45:59;95678.91;;;5.58;100.00
54038;BME280;39954;48.844;9.726;2023-03-18T02:47:08;95686.78;;;5.55;100.00
54038;BME280;39954;48.844;9.726;2023-03-18T02:48:16;95674.78;;;5.54;100.00
54038;BME280;39954;48.844;9.726;2023-03-18T02:49:23;95673.94;;;5.54;100.00
54038;BME280;39954;48.844;9.726;2023-03-18T02:50:29;95672.84;;;5.59;100.00
54038;BME280;39954;48.844;9.726;2023-03-18T02:51:33;95673.06;;;5.55;100.00
54038;BME280;39954;48.844;9.726;2023-03-18T02:52:38;95674.53;;;5.60;100.00
54038;BME280;39954;48.844;9.726;2023-03-18T02:53:41;95670.28;;;5.59;100.00
54038;BME280;39954;48.844;9.726;2023-03-18T02:54:45;95677.94;;;5.61;100.00
54038;BME280;39954;48.844;9.726;2023-03-18T02:55:47;95671.19;;;5.58;100.00
54038;BME280;39954;48.844;9.726;2023-03-18T02:56:53;95661.56;;;5.62;100.00
54038;BME280;39954;48.844;9.726;2023-03-18T02:57:57;95675.22;;;5.64;100.00
54038;BME280;39954;48.844;9.726;2023-03-18T02:59:03;95675.09;;;5.67;100.00
54038;BME280;39954;48.844;9.726;2023-03-18T03:00:06;95680.25;;;5.67;100.00
54038;BME280;39954;48.844;9.726;2023-03-18T03:01:12;95674.25;;;5.67;100.00
54038;BME280;39954;48.844;9.726;2023-03-18T03:02:14;95674.41;;;5.64;100.00
54038;BME280;39954;48.844;9.726;2023-03-18T03:03:18;95676.56;;;5.73;100.00
54038;BME280;39954;48.844;9.726;2023-03-18T03:04:23;95679.16;;;5.73;100.00
54038;BME280;39954;48.844;9.726;2023-03-18T03:05:28;95682.50;;;5.75;100.00
54038;BME280;39954;48.844;9.726;2023-03-18T03:06:30;95681.59;;;5.76;100.00
54038;BME280;39954;48.844;9.726;2023-03-18T03:07:34;95678.31;;;5.72;100.00
54038;BME280;39954;48.844;9.726;2023-03-18T03:08:37;95677.47;;;5.72;100.00
54038;BME280;39954;48.844;9.726;2023-03-18T03:09:42;95681.78;;;5.71;100.00
54038;BME280;39954;48.844;9.726;2023-03-18T03:10:44;95676.63;;;5.71;100.00
54038;BME280;39954;48.844;9.726;2023-03-18T03:11:51;95677.47;;;5.72;100.00
54038;BME280;39954;48.844;9.726;2023-03-18T03:12:56;95675.78;;;5.71;100.00
54038;BME280;39954;48.844;9.726;2023-03-18T03:14:01;95677.22;;;5.78;100.00
54038;BME280;39954;48.844;9.726;2023-03-18T03:15:06;95680.56;;;5.80;100.00
54038;BME280;39954;48.844;9.726;2023-03-18T03:16:12;95680.47;;;5.81;100.00
54038;BME280;39954;48.844;9.726;2023-03-18T03:17:14;95680.41;;;5.83;100.00
54038;BME280;39954;48.844;9.726;2023-03-18T03:18:19;95681.06;;;5.88;100.00
54038;BME280;39954;48.844;9.726;2023-03-18T03:19:22;95683.56;;;5.90;100.00
54038;BME280;39954;48.844;9.726;2023-03-18T03:20:27;95684.28;;;5.93;100.00
54038;BME280;39954;48.844;9.726;2023-03-18T03:21:29;95687.72;;;5.94;100.00
54038;BME280;39954;48.844;9.726;2023-03-18T03:22:36;95683.88;;;6.02;100.00
54038;BME280;39954;48.844;9.726;2023-03-18T03:23:39;95678.59;;;6.05;100.00
54038;BME280;39954;48.844;9.726;2023-03-18T03:24:44;95679.47;;;6.04;100.00
54038;BME280;39954;48.844;9.726;2023-03-18T03:25:46;95681.91;;;6.08;100.00
54038;BME280;39954;48.844;9.726;2023-03-18T03:26:50;95686.31;;;6.05;100.00
54038;BME280;39954;48.844;9.726;2023-03-18T03:27:53;95682.13;;;6.03;100.00
54038;BME280;39954;48.844;9.726;2023-03-18T03:29:01;95685.69;;;6.00;100.00
54038;BME280;39954;48.844;9.726;2023-03-18T03:30:04;95689.25;;;5.98;100.00
54038;BME280;39954;48.844;9.726;2023-03-18T03:31:10;95687.56;;;5.97;100.00
54038;BME280;39954;48.844;9.726;2023-03-18T03:32:12;95688.41;;;5.97;100.00
54038;BME280;39954;48.844;9.726;2023-03-18T03:33:18;95678.16;;;5.96;100.00
54038;BME280;39954;48.844;9.726;2023-03-18T03:34:20;95675.66;;;5.94;100.00
54038;BME280;39954;48.844;9.726;2023-03-18T03:35:26;95676.53;;;5.93;100.00
54038;BME280;39954;48.844;9.726;2023-03-18T03:36:28;95686.72;;;5.96;100.00
54038;BME280;39954;48.844;9.726;2023-03-18T03:37:33;95687.56;;;5.97;100.00
54038;BME280;39954;48.844;9.726;2023-03-18T03:38:36;95681.50;;;5.98;100.00
54038;BME280;39954;48.844;9.726;2023-03-18T03:39:42;95681.56;;;5.96;100.00
54038;BME280;39954;48.844;9.726;2023-03-18T03:40:45;95688.28;;;6.00;100.00
54038;BME280;39954;48.844;9.726;2023-03-18T03:41:50;95690.06;;;5.98;100.00
54038;BME280;39954;48.844;9.726;2023-03-18T03:42:52;95694.44;;;5.96;100.00
54038;BME280;39954;48.844;9.726;2023-03-18T03:43:56;95697.53;;;6.04;100.00
54038;BME280;39954;48.844;9.726;2023-03-18T03:45:03;95692.16;;;6.09;100.00
54038;BME280;39954;48.844;9.726;2023-03-18T03:46:08;95696.50;;;6.09;100.00
54038;BME280;39954;48.844;9.726;2023-03-18T03:47:11;95698.38;;;6.05;100.00
54038;BME280;39954;48.844;9.726;2023-03-18T03:48:16;95702.78;;;6.03;100.00
54038;BME280;39954;48.844;9.726;2023-03-18T03:49:18;95698.44;;;6.03;100.00
54038;BME280;39954;48.844;9.726;2023-03-18T03:50:23;95708.75;;;6.03;100.00
54038;BME280;39954;48.844;9.726;2023-03-18T03:51:25;95708.38;;;5.92;100.00
54038;BME280;39954;48.844;9.726;2023-03-18T03:52:30;95711.22;;;5.86;100.00
54038;BME280;39954;48.844;9.726;2023-03-18T03:53:32;95718.47;;;5.78;100.00
54038;BME280;39954;48.844;9.726;2023-03-18T03:54:37;95717.97;;;5.70;100.00
54038;BME280;39954;48.844;9.726;2023-03-18T03:55:42;95718.38;;;5.60;100.00
54038;BME280;39954;48.844;9.726;2023-03-18T03:56:46;95713.53;;;5.53;100.00
54038;BME280;39954;48.844;9.726;2023-03-18T03:57:49;95716.28;;;5.48;100.00
54038;BME280;39954;48.844;9.726;2023-03-18T03:58:54;95705.41;;;5.42;100.00
54038;BME280;39954;48.844;9.726;2023-03-18T03:59:56;95710.00;;;5.35;100.00
54038;BME280;39954;48.844;9.726;2023-03-18T04:01:04;95720.50;;;5.30;100.00
54038;BME280;39954;48.844;9.726;2023-03-18T04:02:07;95723.25;;;5.26;100.00
54038;BME280;39954;48.844;9.726;2023-03-18T04:03:12;95724.28;;;5.22;100.00
54038;BME280;39954;48.844;9.726;2023-03-18T04:04:17;95724.94;;;5.27;100.00
54038;BME280;39954;48.844;9.726;2023-03-18T04:05:20;95723.78;;;5.34;100.00
54038;BME280;39954;48.844;9.726;2023-03-18T04:06:25;95723.63;;;5.37;100.00
54038;BME280;39954;48.844;9.726;2023-03-18T04:07:27;95723.50;;;5.40;100.00
54038;BME280;39954;48.844;9.726;2023-03-18T04:08:32;95726.16;;;5.38;100.00
54038;BME280;39954;48.844;9.726;2023-03-18T04:09:34;95713.34;;;5.37;100.00
54038;BME280;39954;48.844;9.726;2023-03-18T04:10:39;95726.44;;;5.32;100.00
54038;BME280;39954;48.844;9.726;2023-03-18T04:11:41;95720.63;;;5.27;100.00
54038;BME280;39954;48.844;9.726;2023-03-18T04:12:47;95729.50;;;5.20;100.00
54038;BME280;39954;48.844;9.726;2023-03-18T04:13:50;95722.84;;;5.14;100.00
54038;BME280;39954;48.844;9.726;2023-03-18T04:14:55;95727.34;;;5.09;100.00
54038;BME280;39954;48.844;9.726;2023-03-18T04:15:57;95727.56;;;5.05;100.00
54038;BME280;39954;48.844;9.726;2023-03-18T04:17:04;95727.88;;;4.97;100.00
54038;BME280;39954;48.844;9.726;2023-03-18T04:18:06;95726.38;;;4.91;100.00
54038;BME280;39954;48.844;9.726;2023-03-18T04:19:12;95727.47;;;4.86;100.00
54038;BME280;39954;48.844;9.726;2023-03-18T04:21:19;95729.63;;;4.75;100.00
54038;BME280;39954;48.844;9.726;2023-03-18T04:22:21;95725.50;;;4.70;100.00
54038;BME280;39954;48.844;9.726;2023-03-18T04:23:26;95720.34;;;4.70;100.00
54038;BME280;39954;48.844;9.726;2023-03-18T04:24:28;95722.19;;;4.67;100.00
54038;BME280;39954;48.844;9.726;2023-03-18T04:25:33;95723.28;;;4.61;100.00
54038;BME280;39954;48.844;9.726;2023-03-18T04:26:36;95721.72;;;4.57;100.00
54038;BME280;39954;48.844;9.726;2023-03-18T04:27:41;95730.44;;;4.53;100.00
54038;BME280;39954;48.844;9.726;2023-03-18T04:28:43;95723.75;;;4.49;100.00
54038;BME280;39954;48.844;9.726;2023-03-18T04:29:48;95735.84;;;4.47;100.00
54038;BME280;39954;48.844;9.726;2023-03-18T04:30:51;95729.03;;;4.46;100.00
54038;BME280;39954;48.844;9.726;2023-03-18T04:31:56;95725.44;;;4.50;100.00
54038;BME280;39954;48.844;9.726;2023-03-18T04:33:02;95728.78;;;4.52;100.00
54038;BME280;39954;48.844;9.726;2023-03-18T04:34:07;95721.50;;;4.63;100.00
54038;BME280;39954;48.844;9.726;2023-03-18T04:35:10;95727.31;;;4.68;100.00
54038;BME280;39954;48.844;9.726;2023-03-18T04:36:16;95720.53;;;4.66;100.00
54038;BME280;39954;48.844;9.726;2023-03-18T04:37:19;95720.56;;;4.64;100.00
54038;BME280;39954;48.844;9.726;2023-03-18T04:38:23;95721.38;;;4.66;100.00
54038;BME280;39954;48.844;9.726;2023-03-18T04:39:25;95724.72;;;4.68;100.00
54038;BME280;39954;48.844;9.726;2023-03-18T04:40:30;95730.66;;;4.70;100.00
54038;BME280;39954;48.844;9.726;2023-03-18T04:41:33;95728.91;;;4.71;100.00
54038;BME280;39954;48.844;9.726;2023-03-18T04:42:38;95739.09;;;4.74;100.00
54038;BME280;39954;48.844;9.726;2023-03-18T04:43:40;95733.88;;;4.76;100.00
54038;BME280;39954;48.844;9.726;2023-03-18T04:44:45;95732.84;;;4.80;100.00
54038;BME280;39954;48.844;9.726;2023-03-18T04:45:47;95722.56;;;4.80;100.00
54038;BME280;39954;48.844;9.726;2023-03-18T04:46:52;95727.59;;;4.83;100.00
54038;BME280;39954;48.844;9.726;2023-03-18T04:47:55;95731.91;;;4.82;100.00
54038;BME280;39954;48.844;9.726;2023-03-18T04:49:02;95727.72;;;4.80;100.00
54038;BME280;39954;48.844;9.726;2023-03-18T04:50:05;95733.09;;;4.74;100.00
54038;BME280;39954;48.844;9.726;2023-03-18T04:51:11;95733.53;;;4.63;100.00
54038;BME280;39954;48.844;9.726;2023-03-18T04:52:14;95738.00;;;4.58;100.00
54038;BME280;39954;48.844;9.726;2023-03-18T04:53:19;95741.91;;;4.46;100.00
54038;BME280;39954;48.844;9.726;2023-03-18T04:54:21;95734.50;;;4.37;100.00
54038;BME280;39954;48.844;9.726;2023-03-18T04:55:26;95731.50;;;4.25;100.00
54038;BME280;39954;48.844;9.726;2023-03-18T04:56:28;95737.84;;;4.17;100.00
54038;BME280;39954;48.844;9.726;2023-03-18T04:57:34;95744.16;;;4.08;100.00
54038;BME280;39954;48.844;9.726;2023-03-18T04:58:38;95737.56;;;4.01;100.00
54038;BME280;39954;48.844;9.726;2023-03-18T04:59:43;95739.59;;;3.93;100.00
54038;BME280;39954;48.844;9.726;2023-03-18T05:00:45;95737.13;;;3.90;100.00
54038;BME280;39954;48.844;9.726;2023-03-18T05:01:50;95749.03;;;3.92;100.00
54038;BME280;39954;48.844;9.726;2023-03-18T05:02:53;95745.66;;;3.90;100.00
54038;BME280;39954;48.844;9.726;2023-03-18T05:03:58;95750.19;;;3.84;100.00
54038;BME280;39954;48.844;9.726;2023-03-18T05:05:03;95738.44;;;3.76;100.00
54038;BME280;39954;48.844;9.726;2023-03-18T05:06:16;95730.06;;;3.71;100.00
54038;BME280;39954;48.844;9.726;2023-03-18T05:07:21;95738.00;;;3.65;100.00
54038;BME280;39954;48.844;9.726;2023-03-18T05:08:26;95742.44;;;3.60;100.00
54038;BME280;39954;48.844;9.726;2023-03-18T05:09:28;95736.69;;;3.53;100.00
54038;BME280;39954;48.844;9.726;2023-03-18T05:10:33;95743.66;;;3.50;100.00
54038;BME280;39954;48.844;9.726;2023-03-18T05:11:35;95741.38;;;3.42;100.00
54038;BME280;39954;48.844;9.726;2023-03-18T05:12:40;95739.84;;;3.36;100.00
54038;BME280;39954;48.844;9.726;2023-03-18T05:13:45;95734.88;;;3.30;100.00
54038;BME280;39954;48.844;9.726;2023-03-18T05:14:47;95733.22;;;3.29;100.00
54038;BME280;39954;48.844;9.726;2023-03-18T05:15:52;95731.56;;;3.28;100.00
54038;BME280;39954;48.844;9.726;2023-03-18T05:16:54;95732.31;;;3.30;100.00
54038;BME280;39954;48.844;9.726;2023-03-18T05:17:59;95735.66;;;3.34;100.00
54038;BME280;39954;48.844;9.726;2023-03-18T05:19:01;95736.38;;;3.38;100.00
54038;BME280;39954;48.844;9.726;2023-03-18T05:20:10;95742.19;;;3.43;100.00
54038;BME280;39954;48.844;9.726;2023-03-18T05:21:15;95744.66;;;3.46;100.00
54038;BME280;39954;48.844;9.726;2023-03-18T05:22:19;95736.97;;;3.46;100.00
54038;BME280;39954;48.844;9.726;2023-03-18T05:23:24;95745.56;;;3.45;100.00
54038;BME280;39954;48.844;9.726;2023-03-18T05:24:26;95739.63;;;3.43;100.00
54038;BME280;39954;48.844;9.726;2023-03-18T05:25:31;95737.94;;;3.42;100.00
54038;BME280;39954;48.844;9.726;2023-03-18T05:26:34;95739.78;;;3.38;100.00
54038;BME280;39954;48.844;9.726;2023-03-18T05:27:40;95735.66;;;3.34;100.00
54038;BME280;39954;48.844;9.726;2023-03-18T05:28:42;95733.28;;;3.28;100.00
54038;BME280;39954;48.844;9.726;2023-03-18T05:29:47;95740.34;;;3.21;100.00
54038;BME280;39954;48.844;9.726;2023-03-18T05:30:49;95745.69;;;3.15;100.00
54038;BME280;39954;48.844;9.726;2023-03-18T05:31:54;95739.94;;;3.08;100.00
54038;BME280;39954;48.844;9.726;2023-03-18T05:32:56;95741.84;;;3.02;100.00
54038;BME280;39954;48.844;9.726;2023-03-18T05:34:01;95739.47;;;2.96;100.00
54038;BME280;39954;48.844;9.726;2023-03-18T05:35:04;95735.41;;;2.88;100.00
54038;BME280;39954;48.844;9.726;2023-03-18T05:36:12;95735.63;;;2.82;100.00
54038;BME280;39954;48.844;9.726;2023-03-18T05:37:15;95754.47;;;2.81;100.00
54038;BME280;39954;48.844;9.726;2023-03-18T05:38:20;95736.72;;;2.75;100.00
54038;BME280;39954;48.844;9.726;2023-03-18T05:39:22;95737.69;;;2.71;100.00
54038;BME280;39954;48.844;9.726;2023-03-18T05:40:27;95750.53;;;2.71;100.00
54038;BME280;39954;48.844;9.726;2023-03-18T05:41:29;95753.06;;;2.73;100.00
54038;BME280;39954;48.844;9.726;2023-03-18T05:42:34;95752.97;;;2.74;100.00
54038;BME280;39954;48.844;9.726;2023-03-18T05:43:54;95758.28;;;2.69;100.00